KMDJ/MDJ METAR and TAF weather

Enter ICAO airport designator
Station Type Date Time Source
KMDJ METAR 2018/12/11 18:55 UTC NOAA

KMDJ 111855Z AUTO 01007KT 10SM CLR 11/03 A3038 RMK A01


Station Type Date Time Source
KMDJ Decoded METAR 2018/12/11 18:55 UTC NOAA

Mississippi Canyon, LA, United States (KMDJ) 28-38-33N 089-47-39W
Dec 11, 2018 - 01:55 PM EST / 2018.12.11 1855 UTC
Wind: from the N (010 degrees) at 8 MPH (7 KT):0
Visibility: 10 mile(s):0
Sky conditions: clear
Temperature: 51 F (11 C)
Dew Point: 37 F (3 C)
Relative Humidity: 57%
Pressure (altimeter): 30.38 in. Hg (1028 hPa)
ob: KMDJ 111855Z AUTO 01007KT 10SM CLR 11/03 A3038 RMK A01
cycle: 19

Station Type Date Time Source
KMDJ TAF UTC NOAA

Error!


Example: see airport list